Time;durP1;ratioP1;P1;durP2;ratioP2;P2;SDS_P1;SDS_P2;PMS_P1;PMS_P2;Temp;Humidity;BMP_temperature;BMP_pressure;BME280_temperature;BME280_humidity;BME280_pressure;Samples;Min_cycle;Max_cycle;Signal;HPM_P1;HPM_P2
2022/05/23 00:00:00;;;;;;;27.58;12.32;;;;;;;17.15;62.66;100735.34;4958874;28;20053;-81
2022/05/23 00:02:25;;;;;;;33.30;13.10;;;;;;;17.14;62.75;100719.25;4971965;28;20134;-81
2022/05/23 00:04:51;;;;;;;31.52;12.40;;;;;;;17.06;63.39;100723.09;4972844;28;20026;-82
2022/05/23 00:07:30;;;;;;;36.00;12.45;;;;;;;17.05;63.52;100721.44;4955742;28;20022;-82
2022/05/23 00:09:55;;;;;;;23.13;11.73;;;;;;;17.03;63.60;100716.22;4973629;28;20026;-82
2022/05/23 00:12:22;;;;;;;25.83;10.98;;;;;;;17.07;63.44;100709.28;4955575;28;20034;-82
2022/05/23 00:14:48;;;;;;;30.63;12.43;;;;;;;17.05;63.63;100705.97;4973553;28;20038;-82
2022/05/23 00:17:13;;;;;;;30.30;12.43;;;;;;;17.02;63.70;100700.16;4973167;28;20042;-80
2022/05/23 00:19:39;;;;;;;28.02;12.10;;;;;;;17.00;63.57;100688.69;4955390;28;20054;-80
2022/05/23 00:22:04;;;;;;;29.42;12.15;;;;;;;17.06;63.65;100679.59;4955296;28;20026;-80
2022/05/23 00:24:30;;;;;;;25.65;12.30;;;;;;;17.03;63.89;100666.47;4955237;28;20062;-80
2022/05/23 00:26:56;;;;;;;28.42;11.98;;;;;;;17.02;63.94;100667.53;4972933;28;20035;-82
2022/05/23 00:29:21;;;;;;;31.27;12.60;;;;;;;17.05;63.48;100664.34;4955197;28;20062;-80
2022/05/23 00:37:17;;;;;;;22.05;11.27;;;;;;;16.79;64.13;100662.78;4973210;28;20049;-80
2022/05/23 00:39:42;;;;;;;30.45;12.93;;;;;;;16.78;64.54;100661.16;4955362;28;20031;-81
2022/05/23 00:45:00;;;;;;;36.03;12.77;;;;;;;16.73;64.76;100656.34;4944454;28;20581;-80
2022/05/23 00:47:27;;;;;;;29.73;12.30;;;;;;;16.71;64.99;100655.75;4972443;28;20026;-80
2022/05/23 00:49:52;;;;;;;20.65;11.40;;;;;;;16.68;64.92;100661.63;4954976;28;20205;-80
2022/05/23 00:52:28;;;;;;;24.48;11.73;;;;;;;16.66;65.11;100658.31;4971384;28;20077;-80
2022/05/23 00:54:55;;;;;;;24.50;12.07;;;;;;;16.63;65.21;100656.88;4972421;28;20440;-80
2022/05/23 00:57:26;;;;;;;26.48;10.73;;;;;;;16.59;65.19;100654.84;4955035;28;20061;-80
2022/05/23 00:59:52;;;;;;;28.15;12.32;;;;;;;16.53;65.55;100647.59;4954715;28;20149;-80
2022/05/23 01:02:19;;;;;;;24.88;10.73;;;;;;;16.48;65.81;100633.84;4976477;28;20034;-81
2022/05/23 01:04:44;;;;;;;31.55;12.77;;;;;;;16.43;65.94;100635.38;4983716;28;20031;-81
2022/05/23 01:07:11;;;;;;;30.13;12.88;;;;;;;16.41;66.30;100628.50;4967892;28;20524;-82
2022/05/23 01:09:38;;;;;;;29.42;12.32;;;;;;;16.34;66.24;100631.28;4986471;28;20042;-82
2022/05/23 01:12:03;;;;;;;30.70;12.32;;;;;;;16.28;66.50;100631.38;4987481;28;20030;-81
2022/05/23 01:14:45;;;;;;;30.73;13.50;;;;;;;16.19;66.87;100636.25;4988184;28;20054;-81
2022/05/23 01:17:10;;;;;;;26.92;12.32;;;;;;;16.15;67.44;100629.63;4989888;28;20062;-80
2022/05/23 01:19:36;;;;;;;27.02;11.82;;;;;;;16.15;67.40;100629.63;4988295;28;20023;-81
2022/05/23 01:22:07;;;;;;;26.13;12.13;;;;;;;16.12;67.39;100628.19;4956039;28;20039;-83
2022/05/23 01:24:41;;;;;;;20.95;11.57;;;;;;;16.10;67.36;100627.56;4941434;28;20031;-82
2022/05/23 01:27:06;;;;;;;29.23;12.23;;;;;;;16.11;67.49;100628.38;4996668;28;20022;-80
2022/05/23 01:29:32;;;;;;;35.53;12.13;;;;;;;16.07;67.91;100628.00;5008267;28;20022;-80
2022/05/23 01:31:59;;;;;;;25.15;12.00;;;;;;;16.04;68.24;100623.03;4996059;28;20202;-80
2022/05/23 01:34:25;;;;;;;26.10;12.00;;;;;;;16.00;68.65;100632.66;4994298;28;20062;-80
2022/05/23 01:36:50;;;;;;;22.27;11.40;;;;;;;16.04;68.33;100627.63;4991485;28;20034;-81
2022/05/23 01:39:16;;;;;;;29.30;12.82;;;;;;;15.99;68.34;100631.00;4971986;28;20042;-84
2022/05/23 01:41:41;;;;;;;28.83;12.48;;;;;;;15.95;68.54;100618.94;4972875;28;20078;-81
2022/05/23 01:44:06;;;;;;;28.90;12.43;;;;;;;15.92;69.02;100625.63;4954872;28;20109;-81
2022/05/23 01:46:32;;;;;;;32.42;11.98;;;;;;;15.93;68.72;100621.88;4971633;28;20527;-81
2022/05/23 01:48:57;;;;;;;23.42;11.13;;;;;;;15.97;68.98;100619.53;4972471;28;20035;-83
2022/05/23 01:51:22;;;;;;;26.95;10.75;;;;;;;15.97;69.08;100624.97;4972773;28;20098;-82
2022/05/23 01:53:48;;;;;;;30.38;12.63;;;;;;;15.94;69.25;100623.53;4972840;28;20114;-84
2022/05/23 01:56:13;;;;;;;30.98;11.63;;;;;;;16.01;68.75;100615.34;4972243;28;20098;-81
2022/05/23 02:01:25;;;;;;;28.60;12.30;;;;;;;16.10;68.55;100619.41;4972351;28;20041;-82
2022/05/23 02:03:50;;;;;;;30.15;12.07;;;;;;;16.10;68.69;100622.13;4973020;28;20023;-82
2022/05/23 02:06:16;;;;;;;31.20;11.68;;;;;;;16.09;68.67;100615.06;4976069;28;20045;-81
2022/05/23 02:08:41;;;;;;;28.67;11.85;;;;;;;16.10;68.78;100614.00;4976460;28;20121;-81
2022/05/23 02:11:07;;;;;;;26.67;12.65;;;;;;;16.17;68.54;100613.94;4986226;28;20030;-79
2022/05/23 02:13:34;;;;;;;25.35;10.57;;;;;;;16.16;68.77;100614.97;4991767;28;20090;-79
2022/05/23 02:15:59;;;;;;;25.35;12.23;;;;;;;16.17;68.84;100612.03;4995371;28;20034;-81
2022/05/23 02:18:25;;;;;;;29.48;12.52;;;;;;;16.20;68.88;100605.34;4975756;28;20038;-81
2022/05/23 02:20:51;;;;;;;26.90;12.05;;;;;;;16.24;68.61;100601.09;4956533;29;20059;-82
2022/05/23 02:23:16;;;;;;;25.48;12.18;;;;;;;16.27;68.64;100591.66;4975114;28;20578;-82
2022/05/23 02:25:41;;;;;;;31.15;11.77;;;;;;;16.29;68.32;100593.09;4957818;28;20097;-81
2022/05/23 02:28:08;;;;;;;23.17;12.07;;;;;;;16.36;68.33;100587.63;4975221;28;20390;-82
2022/05/23 02:30:33;;;;;;;23.30;12.13;;;;;;;16.38;67.99;100589.03;4971482;28;20046;-83
2022/05/23 02:32:59;;;;;;;23.90;11.23;;;;;;;16.31;67.99;100580.13;5032130;22;20421;-30
2022/05/23 02:35:24;;;;;;;26.20;12.63;;;;;;;16.24;68.20;100568.50;5020805;28;20046;-30
2022/05/23 02:37:49;;;;;;;28.65;13.38;;;;;;;16.22;68.22;100568.75;5019082;28;20038;-31
2022/05/23 02:40:15;;;;;;;22.70;12.02;;;;;;;16.23;68.11;100561.44;5017877;28;20041;-30
2022/05/23 02:42:40;;;;;;;29.65;11.82;;;;;;;16.24;68.24;100565.78;5023979;28;20138;-30
2022/05/23 02:45:06;;;;;;;29.40;12.43;;;;;;;16.27;68.36;100554.47;5036673;28;20022;-30
2022/05/23 02:47:32;;;;;;;29.95;12.55;;;;;;;16.26;68.21;100552.81;5014257;28;20085;-32
2022/05/23 02:49:58;;;;;;;33.53;12.98;;;;;;;16.32;68.10;100554.63;5021099;28;20077;-32
2022/05/23 02:52:24;;;;;;;25.00;13.00;;;;;;;16.32;67.73;100537.50;5002511;28;20053;-30
2022/05/23 02:54:49;;;;;;;34.85;12.57;;;;;;;16.37;67.74;100541.19;5021672;28;20027;-29
2022/05/23 02:57:14;;;;;;;26.75;12.80;;;;;;;16.39;67.45;100532.84;5022214;28;20050;-30
2022/05/23 02:59:40;;;;;;;22.88;11.52;;;;;;;16.33;67.49;100525.59;5018374;28;20098;-31
2022/05/23 03:04:49;;;;;;;30.10;11.68;;;;;;;16.28;67.48;100514.59;5020422;28;20057;-31
2022/05/23 03:07:15;;;;;;;30.65;12.90;;;;;;;16.27;67.65;100508.31;5033154;28;20038;-32
2022/05/23 03:09:40;;;;;;;27.73;12.60;;;;;;;16.34;67.43;100503.63;5018358;28;20038;-31
2022/05/23 03:12:06;;;;;;;26.80;12.02;;;;;;;16.30;67.31;100497.03;5017634;28;20025;-32
2022/05/23 03:14:32;;;;;;;46.78;13.00;;;;;;;16.31;67.40;100490.53;5017385;28;20035;-31
2022/05/23 03:17:02;;;;;;;32.03;12.20;;;;;;;16.36;67.04;100485.22;5017013;28;20332;-32
2022/05/23 03:19:28;;;;;;;26.08;12.05;;;;;;;16.30;67.28;100478.00;5032310;28;20078;-29
2022/05/23 03:27:21;;;;;;;33.50;12.35;;;;;;;16.28;67.15;100471.97;5030006;28;20146;-30
2022/05/23 03:29:46;;;;;;;38.80;10.93;;;;;;;16.31;67.27;100462.53;5016785;28;20014;-32
2022/05/23 03:32:13;;;;;;;31.42;12.10;;;;;;;16.26;67.14;100460.50;5017557;28;20045;-32
2022/05/23 03:34:38;;;;;;;23.90;10.57;;;;;;;16.26;67.45;100460.50;4982131;28;20035;-29
2022/05/23 03:37:05;;;;;;;36.05;11.93;;;;;;;16.24;67.58;100454.47;4982917;28;20033;-29
2022/05/23 03:39:30;;;;;;;32.28;11.98;;;;;;;16.28;67.65;100450.25;4989527;28;20023;-33
2022/05/23 03:41:56;;;;;;;23.60;11.25;;;;;;;16.32;67.38;100446.00;4982512;28;20145;-30
2022/05/23 03:44:21;;;;;;;36.22;12.55;;;;;;;16.30;67.11;100440.00;4979316;28;20039;-31
2022/05/23 03:46:47;;;;;;;36.58;11.85;;;;;;;16.26;67.42;100433.34;4976837;28;20345;-33
2022/05/23 03:49:12;;;;;;;29.98;11.65;;;;;;;16.31;67.34;100432.66;4994551;28;20037;-33
2022/05/23 03:51:37;;;;;;;30.58;11.38;;;;;;;16.32;67.22;100421.56;4996466;28;20082;-32
2022/05/23 03:54:04;;;;;;;24.77;11.50;;;;;;;16.25;67.36;100423.56;4991362;28;20039;-33
2022/05/23 03:56:30;;;;;;;28.33;10.60;;;;;;;16.35;67.80;100422.97;4989803;28;20121;-31
2022/05/23 03:58:55;;;;;;;27.08;11.30;;;;;;;16.33;67.87;100414.25;4985445;28;20070;-30
2022/05/23 04:01:25;;;;;;;29.48;11.90;;;;;;;16.31;67.92;100416.38;4987556;28;20043;-30
2022/05/23 04:03:50;;;;;;;25.48;10.95;;;;;;;16.19;68.23;100413.59;4989451;28;20039;-31
2022/05/23 04:06:16;;;;;;;25.20;11.43;;;;;;;16.13;68.78;100414.53;4978121;28;20058;-33
2022/05/23 04:08:41;;;;;;;21.90;10.80;;;;;;;16.12;68.61;100415.59;4995480;28;20023;-32
2022/05/23 04:11:07;;;;;;;31.63;10.75;;;;;;;16.15;68.59;100413.25;4997252;28;20035;-33
2022/05/23 04:13:33;;;;;;;23.05;11.55;;;;;;;16.13;68.63;100414.53;4980427;28;20355;-32
2022/05/23 04:15:58;;;;;;;23.67;11.43;;;;;;;16.14;68.78;100421.59;4996520;28;20022;-31
2022/05/23 04:18:24;;;;;;;19.75;10.95;;;;;;;16.17;68.39;100415.75;4991284;28;20775;-31
2022/05/23 04:20:49;;;;;;;29.63;11.23;;;;;;;16.27;67.95;100407.03;4987096;28;20158;-31
2022/05/23 04:23:15;;;;;;;24.15;10.57;;;;;;;16.32;67.80;100412.59;4988144;28;20027;-30
2022/05/23 04:25:45;;;;;;;27.33;11.88;;;;;;;16.27;67.39;100410.56;4977425;28;20045;-31
2022/05/23 04:28:11;;;;;;;28.60;11.02;;;;;;;16.28;67.39;100412.22;4982026;28;20055;-31
2022/05/23 04:30:37;;;;;;;27.10;11.35;;;;;;;16.27;67.20;100407.03;4984108;28;20027;-32
2022/05/23 04:35:54;;;;;;;24.15;10.15;;;;;;;16.37;67.10;100397.25;4977635;28;20085;-31
2022/05/23 04:38:19;;;;;;;28.30;10.27;;;;;;;16.38;66.61;100395.41;4994261;28;20027;-32
2022/05/23 04:40:45;;;;;;;27.42;10.27;;;;;;;16.36;66.70;100381.22;4995395;28;20035;-31
2022/05/23 04:43:11;;;;;;;18.98;9.20;;;;;;;16.35;66.77;100376.81;4996378;28;20094;-30
2022/05/23 04:45:36;;;;;;;24.70;10.52;;;;;;;16.40;66.91;100366.09;4994815;28;20086;-30
2022/05/23 04:50:46;;;;;;;22.38;9.77;;;;;;;16.51;66.30;100356.31;4977040;28;20042;-31
2022/05/23 04:53:11;;;;;;;31.48;11.48;;;;;;;16.53;66.57;100357.72;4975941;28;20027;-30
2022/05/23 04:55:38;;;;;;;27.30;9.65;;;;;;;16.57;66.22;100358.94;4961138;28;20038;-31
2022/05/23 04:58:04;;;;;;;19.30;9.95;;;;;;;16.63;66.06;100354.47;4977506;28;20035;-32
2022/05/23 05:00:30;;;;;;;26.95;11.00;;;;;;;16.71;66.24;100351.41;4962504;28;20054;-31
2022/05/23 05:02:59;;;;;;;28.65;9.90;;;;;;;16.78;65.64;100357.59;4996588;28;20030;-31
2022/05/23 05:05:25;;;;;;;21.40;9.52;;;;;;;16.89;65.03;100362.19;4996104;28;20057;-32
2022/05/23 05:07:51;;;;;;;25.75;10.60;;;;;;;16.93;64.53;100359.84;4988505;28;20351;-32
2022/05/23 05:10:17;;;;;;;30.08;9.88;;;;;;;16.84;64.96;100350.38;4996088;28;20010;-31
2022/05/23 05:12:44;;;;;;;24.55;11.38;;;;;;;16.86;65.12;100349.09;4995539;28;20015;-31
2022/05/23 05:15:10;;;;;;;32.78;9.63;;;;;;;16.93;64.71;100338.09;4995922;28;20110;-32
2022/05/23 05:17:35;;;;;;;24.13;10.07;;;;;;;16.98;64.53;100338.22;4984581;28;20019;-30
2022/05/23 05:20:00;;;;;;;26.42;10.00;;;;;;;17.03;64.15;100332.06;4986986;28;20030;-33
2022/05/23 05:22:26;;;;;;;29.65;10.25;;;;;;;16.99;63.98;100339.88;4995164;28;20039;-31
2022/05/23 05:24:51;;;;;;;29.92;10.40;;;;;;;16.96;64.24;100339.53;4994306;28;20019;-32
2022/05/23 05:27:17;;;;;;;24.02;10.25;;;;;;;16.97;64.03;100327.56;4987544;28;20030;-31
2022/05/23 05:29:42;;;;;;;26.10;9.50;;;;;;;17.00;64.34;100327.91;4981228;28;20019;-31
2022/05/23 05:32:36;;;;;;;25.15;9.90;;;;;;;17.02;64.25;100324.97;4978786;28;20023;-30
2022/05/23 05:35:30;;;;;;;34.63;10.43;;;;;;;17.02;64.45;100319.53;4991603;28;20038;-30
2022/05/23 05:38:15;;;;;;;36.80;13.48;;;;;;;17.04;64.55;100317.41;4978164;28;20033;-32
2022/05/23 05:40:48;;;;;;;44.63;10.80;;;;;;;17.02;63.99;100309.50;4982375;28;20035;-32
2022/05/23 05:43:16;;;;;;;34.67;11.20;;;;;;;16.94;64.50;100307.13;4982260;28;20023;-32
2022/05/23 05:45:51;;;;;;;36.88;10.63;;;;;;;17.08;64.13;100304.97;4982643;28;20068;-30
2022/05/23 05:48:17;;;;;;;39.40;12.02;;;;;;;17.04;64.50;100304.66;5002145;28;20026;-31
2022/05/23 05:50:44;;;;;;;30.52;11.52;;;;;;;17.03;64.65;100307.59;5017387;28;20037;-32
2022/05/23 05:53:12;;;;;;;37.75;11.80;;;;;;;16.99;64.93;100295.56;5007356;28;20054;-32
2022/05/23 05:55:39;;;;;;;34.38;11.32;;;;;;;17.06;65.35;100304.38;4982266;28;20113;-31
2022/05/23 05:58:04;;;;;;;20.48;10.75;;;;;;;17.11;65.54;100293.63;5000586;28;20050;-31
2022/05/23 06:00:30;;;;;;;27.10;10.35;;;;;;;17.29;64.66;100303.53;4999602;28;20050;-33
2022/05/23 06:02:55;;;;;;;24.05;10.60;;;;;;;17.32;63.55;100287.59;5016544;28;20030;-31
2022/05/23 06:05:20;;;;;;;37.20;11.80;;;;;;;17.39;64.08;100281.19;5006320;28;20089;-31
2022/05/23 06:13:14;;;;;;;39.28;12.75;;;;;;;17.41;63.18;100284.50;5018345;28;20042;-30
2022/05/23 06:15:40;;;;;;;41.30;13.50;;;;;;;17.23;63.79;100293.63;5017959;28;20030;-31
2022/05/23 06:18:05;;;;;;;24.73;10.73;;;;;;;17.23;64.64;100277.31;5018191;28;20018;-31
2022/05/23 06:20:31;;;;;;;26.27;12.05;;;;;;;17.13;64.50;100282.53;5018464;28;20041;-33
2022/05/23 06:22:57;;;;;;;28.00;11.80;;;;;;;17.12;65.19;100276.28;5018753;28;20018;-30
2022/05/23 06:25:23;;;;;;;32.75;12.50;;;;;;;17.08;65.33;100270.47;5018511;28;20080;-31
2022/05/23 06:27:48;;;;;;;31.50;12.07;;;;;;;17.03;65.68;100272.25;5019098;28;20010;-31
2022/05/23 06:30:16;;;;;;;25.85;12.32;;;;;;;16.98;65.97;100269.41;5018585;28;20026;-32
2022/05/23 06:32:42;;;;;;;28.67;11.98;;;;;;;17.05;66.45;100275.56;5018702;28;20037;-32
2022/05/23 06:35:07;;;;;;;37.28;13.43;;;;;;;17.12;66.16;100270.84;5018218;28;20106;-32
2022/05/23 06:37:43;;;;;;;45.10;14.02;;;;;;;17.30;66.01;100267.97;5017893;28;20469;-32
2022/05/23 06:40:10;;;;;;;37.92;12.57;;;;;;;17.47;65.22;100273.44;5018473;28;20019;-31
2022/05/23 06:42:36;;;;;;;36.67;12.68;;;;;;;17.52;64.71;100264.56;5017892;28;20035;-32
2022/05/23 06:45:03;;;;;;;30.33;12.07;;;;;;;17.61;64.38;100268.56;5017806;28;20101;-32
2022/05/23 06:47:29;;;;;;;45.22;13.55;;;;;;;17.88;63.11;100262.56;5017876;28;20078;-32
2022/05/23 06:49:54;;;;;;;28.73;11.23;;;;;;;18.00;63.25;100255.16;5018442;28;20053;-32
2022/05/23 06:52:20;;;;;;;48.70;12.82;;;;;;;18.16;62.88;100251.63;5017781;28;20018;-33
2022/05/23 06:54:45;;;;;;;30.42;13.98;;;;;;;18.24;61.83;100252.28;5017878;28;20015;-32
2022/05/23 06:57:11;;;;;;;31.67;12.68;;;;;;;18.32;61.77;100260.03;5017909;28;20042;-32
2022/05/23 06:59:37;;;;;;;27.70;12.32;;;;;;;18.31;62.26;100252.97;5017904;28;20069;-31
2022/05/23 07:02:02;;;;;;;29.90;13.38;;;;;;;18.25;61.54;100251.22;5017612;28;20022;-31
2022/05/23 07:12:19;;;;;;;38.10;14.80;;;;;;;18.10;61.96;100249.88;5017075;28;20038;-31
2022/05/23 07:12:49;;;;;;;34.78;13.52;;;;;;;18.08;63.03;100240.31;5002235;28;20120;-32
2022/05/23 07:15:14;;;;;;;31.33;13.50;;;;;;;18.16;63.05;100243.44;5018231;28;20031;-31
2022/05/23 07:17:40;;;;;;;32.65;13.65;;;;;;;18.20;62.06;100246.53;5017845;28;20046;-32
2022/05/23 07:20:06;;;;;;;35.45;13.73;;;;;;;18.30;61.96;100243.97;5016998;28;20021;-31
2022/05/23 07:22:32;;;;;;;22.25;11.18;;;;;;;18.33;62.50;100237.19;5000076;28;20022;-31
2022/05/23 07:24:58;;;;;;;31.60;13.90;;;;;;;18.39;62.11;100231.56;5017282;28;20011;-31
2022/05/23 07:27:25;;;;;;;34.78;14.45;;;;;;;18.30;62.47;100235.78;5017431;28;20019;-30
2022/05/23 07:29:50;;;;;;;31.02;12.65;;;;;;;18.48;62.11;100228.41;5017190;28;20093;-31
2022/05/23 07:32:16;;;;;;;27.27;13.25;;;;;;;18.56;62.59;100231.56;4999664;28;20038;-31
2022/05/23 07:34:41;;;;;;;28.02;13.02;;;;;;;18.86;61.59;100235.84;5016667;28;20042;-32
2022/05/23 07:37:08;;;;;;;38.10;14.27;;;;;;;18.96;61.80;100230.53;5016942;28;20014;-31
2022/05/23 07:39:38;;;;;;;29.95;14.32;;;;;;;19.04;60.99;100221.09;5017294;28;20030;-32
2022/05/23 07:42:05;;;;;;;32.17;12.88;;;;;;;19.40;60.78;100230.50;5017134;28;20126;-32
2022/05/23 07:44:30;;;;;;;37.13;14.43;;;;;;;19.62;60.11;100221.47;5016801;28;20030;-31
2022/05/23 07:46:56;;;;;;;86.68;33.85;;;;;;;19.66;59.60;100228.06;4999549;28;20026;-30
2022/05/23 07:49:22;;;;;;;71.93;24.65;;;;;;;19.70;59.33;100230.06;5016681;28;20130;-31
2022/05/23 07:51:47;;;;;;;43.60;16.77;;;;;;;19.78;59.70;100228.78;5016819;28;20014;-32
2022/05/23 08:02:25;;;;;;;33.47;13.70;;;;;;;20.33;57.99;100216.69;5016728;28;20061;-33
2022/05/23 08:04:50;;;;;;;33.83;13.88;;;;;;;21.13;55.90;100208.41;4999800;28;20026;-31
2022/05/23 08:07:15;;;;;;;27.83;13.88;;;;;;;21.87;53.39;100211.91;4999891;28;20026;-32
2022/05/23 08:09:41;;;;;;;30.33;14.10;;;;;;;22.21;51.81;100211.41;5016982;28;20097;-33
2022/05/23 08:12:07;;;;;;;33.42;13.88;;;;;;;22.33;50.81;100198.25;5016329;28;20018;-32
2022/05/23 08:14:32;;;;;;;24.55;13.05;;;;;;;22.90;49.89;100193.44;4999111;28;20029;-32
2022/05/23 08:16:58;;;;;;;36.90;13.98;;;;;;;23.19;48.69;100199.13;4999007;28;20023;-34
2022/05/23 08:19:24;;;;;;;39.38;15.60;;;;;;;22.77;49.72;100189.38;4999209;28;20063;-32
2022/05/23 08:21:53;;;;;;;38.10;13.43;;;;;;;22.91;50.26;100190.44;4999186;28;20030;-32
2022/05/23 08:24:18;;;;;;;45.63;15.45;;;;;;;23.00;49.09;100185.22;4999106;28;20061;-32
2022/05/23 08:26:44;;;;;;;47.60;16.40;;;;;;;23.04;49.98;100185.47;5016854;28;20022;-33
2022/05/23 08:29:10;;;;;;;46.17;15.95;;;;;;;23.18;49.59;100178.28;5016542;28;20028;-31
2022/05/23 08:31:36;;;;;;;47.83;15.90;;;;;;;24.15;46.69;100166.66;5016057;28;20042;-33
2022/05/23 08:34:01;;;;;;;50.70;16.45;;;;;;;24.42;46.37;100162.53;4998883;28;20069;-33
2022/05/23 08:36:27;;;;;;;41.38;14.18;;;;;;;24.88;46.28;100156.53;4998957;28;20014;-31
2022/05/23 08:38:52;;;;;;;52.50;16.85;;;;;;;24.13;46.77;100160.59;5016448;28;20030;-32
2022/05/23 08:41:23;;;;;;;38.10;14.20;;;;;;;23.96;48.04;100163.78;5015177;28;20030;-31
2022/05/23 08:43:56;;;;;;;54.13;17.55;;;;;;;23.37;49.65;100157.28;5016055;28;20062;-32
2022/05/23 08:46:26;;;;;;;50.72;17.02;;;;;;;22.91;50.85;100148.47;4998895;28;20026;-33
2022/05/23 08:49:05;;;;;;;46.13;18.38;;;;;;;22.49;51.88;100155.19;5016266;28;20038;-32
2022/05/23 08:51:42;;;;;;;45.60;17.05;;;;;;;22.53;52.28;100151.59;5015814;28;20086;-34
2022/05/23 08:54:23;;;;;;;41.40;16.15;;;;;;;22.96;51.63;100143.81;4998687;28;20022;-30
2022/05/23 08:56:56;;;;;;;44.80;17.10;;;;;;;23.07;51.23;100147.31;5015708;28;20027;-32
2022/05/23 08:59:27;;;;;;;55.88;17.95;;;;;;;22.95;51.16;100133.88;5015774;28;20022;-32
2022/05/23 09:01:58;;;;;;;34.25;17.65;;;;;;;22.82;51.82;100139.97;4998415;28;20030;-33
2022/05/23 09:04:55;;;;;;;43.33;18.45;;;;;;;22.32;53.99;100128.88;4999354;28;20057;-33
2022/05/23 09:07:31;;;;;;;48.38;18.65;;;;;;;22.18;54.18;100119.56;4998915;28;20034;-31
2022/05/23 09:10:04;;;;;;;46.05;17.30;;;;;;;22.19;54.33;100117.66;4998704;28;20038;-32
2022/05/23 09:12:30;;;;;;;44.53;20.40;;;;;;;22.40;52.06;100121.19;4997965;28;20093;-32
2022/05/23 09:14:56;;;;;;;47.58;22.02;;;;;;;22.21;51.86;100110.00;5015130;28;20026;-32
2022/05/23 09:17:24;;;;;;;57.67;22.50;;;;;;;22.28;51.07;100114.09;5015717;28;20057;-32
2022/05/23 09:20:05;;;;;;;;;;;;;;;22.28;51.20;100118.78;5016417;28;20072;-31
2022/05/23 09:22:45;;;;;;;55.65;23.92;;;;;;;22.14;51.70;100113.84;4982490;28;19906;-31
2022/05/23 09:25:13;;;;;;;60.53;27.83;;;;;;;22.01;52.08;100111.66;5015521;28;20046;-32
2022/05/23 09:28:05;;;;;;;56.72;26.65;;;;;;;21.87;52.21;100116.03;4998806;28;20045;-32
2022/05/23 09:30:30;;;;;;;55.80;25.95;;;;;;;21.88;52.04;100109.44;4978759;28;20026;-32
2022/05/23 09:33:17;;;;;;;50.25;25.35;;;;;;;21.99;52.00;100102.88;5015271;28;20036;-33
2022/05/23 09:35:42;;;;;;;59.50;26.30;;;;;;;21.92;55.83;100092.19;5016019;28;20034;-32
2022/05/23 09:38:25;;;;;;;54.72;25.75;;;;;;;21.69;57.13;100090.84;5015638;28;20037;-31
2022/05/23 09:40:51;;;;;;;56.60;26.35;;;;;;;21.45;58.53;100089.75;5015919;28;20026;-32
2022/05/23 09:49:21;;;;;;;59.10;28.67;;;;;;;20.96;60.54;100071.03;4979839;28;20097;-31
2022/05/23 09:52:10;;;;;;;63.85;26.98;;;;;;;20.90;60.57;100070.16;5015754;28;20077;-32
2022/05/23 09:54:43;;;;;;;59.28;27.00;;;;;;;20.86;60.95;100065.53;5015867;28;20031;-31
2022/05/23 09:57:17;;;;;;;49.53;23.92;;;;;;;20.75;60.94;100057.28;5015406;28;20120;-32
2022/05/23 09:59:42;;;;;;;50.72;24.90;;;;;;;20.67;60.00;100055.09;5015713;28;20022;-32
2022/05/23 10:02:35;;;;;;;58.88;26.65;;;;;;;20.56;61.85;100056.97;4998341;28;20026;-31
2022/05/23 10:05:00;;;;;;;46.67;23.02;;;;;;;20.62;61.49;100049.59;4998514;28;20057;-33
2022/05/23 10:07:37;;;;;;;45.85;23.17;;;;;;;20.68;61.68;100037.56;5015099;28;20102;-32
2022/05/23 10:10:02;;;;;;;45.80;22.70;;;;;;;20.77;61.58;100040.59;5015943;28;20082;-31
2022/05/23 10:12:28;;;;;;;51.30;21.77;;;;;;;20.88;60.93;100038.72;5015238;28;20260;-32
2022/05/23 10:15:24;;;;;;;53.10;22.02;;;;;;;20.87;59.83;100028.88;5015355;28;20125;-32
2022/05/23 10:18:00;;;;;;;43.50;20.83;;;;;;;20.87;60.42;100031.59;4998816;28;20034;-31
2022/05/23 10:20:30;;;;;;;48.97;21.63;;;;;;;20.72;59.26;100019.56;4998882;28;20023;-33
2022/05/23 10:23:04;;;;;;;53.50;21.73;;;;;;;20.82;59.02;100014.09;5015325;28;20026;-33
2022/05/23 10:25:50;;;;;;;45.30;20.83;;;;;;;20.80;58.43;100012.72;5017452;28;20037;-33
2022/05/23 10:28:25;;;;;;;40.53;19.95;;;;;;;20.87;59.47;100013.28;5002694;28;20065;-32
2022/05/23 10:30:59;;;;;;;45.28;21.50;;;;;;;21.01;57.73;100008.09;5002357;28;20018;-32
2022/05/23 10:33:27;;;;;;;48.22;21.02;;;;;;;21.14;57.52;100002.09;5018833;28;20018;-32
2022/05/23 10:36:15;;;;;;;45.78;22.92;;;;;;;21.28;56.47;100016.06;4986036;28;20030;-32
2022/05/23 10:42:07;;;;;;;47.88;21.65;;;;;;;21.41;56.11;99998.31;5018782;28;20049;-32
2022/05/23 10:44:54;;;;;;;50.75;23.73;;;;;;;21.40;55.34;100000.22;5004329;28;20027;-32
2022/05/23 10:47:34;;;;;;;51.55;23.73;;;;;;;21.42;55.29;99998.03;5018748;28;20022;-32
2022/05/23 10:50:19;;;;;;;46.78;21.65;;;;;;;21.45;55.85;99991.19;5018498;28;20030;-31
2022/05/23 10:52:59;;;;;;;48.35;22.33;;;;;;;21.56;55.35;99989.25;5018671;28;20031;-32
2022/05/23 10:55:33;;;;;;;51.38;23.65;;;;;;;21.83;54.22;99997.16;5018287;28;20031;-33
2022/05/23 10:58:17;;;;;;;58.80;24.48;;;;;;;22.24;53.75;99988.84;5001621;28;20074;-33
2022/05/23 11:00:51;;;;;;;54.67;24.55;;;;;;;22.47;53.05;99977.22;5018696;28;20018;-32
2022/05/23 11:03:26;;;;;;;53.67;24.15;;;;;;;22.65;52.26;99973.00;5018382;28;20050;-32
2022/05/23 11:06:08;;;;;;;61.15;25.27;;;;;;;22.75;52.17;99969.41;5001317;28;20034;-30
2022/05/23 11:08:53;;;;;;;54.72;23.30;;;;;;;22.68;52.82;99958.72;5018289;28;20032;-33
2022/05/23 11:11:28;;;;;;;60.50;25.90;;;;;;;22.66;52.88;99952.69;5018466;28;20022;-30
2022/05/23 11:13:59;;;;;;;67.45;24.48;;;;;;;22.53;52.76;99951.41;5018043;28;20022;-33
2022/05/23 11:16:37;;;;;;;57.90;25.38;;;;;;;22.33;53.43;99946.88;5018480;28;20026;-31
2022/05/23 11:19:12;;;;;;;48.03;23.40;;;;;;;22.34;53.96;99943.00;5000698;28;20287;-31
2022/05/23 11:21:58;;;;;;;47.17;23.83;;;;;;;22.38;54.12;99935.06;5001106;28;20022;-30
2022/05/23 11:24:50;;;;;;;53.97;25.73;;;;;;;22.32;54.34;99944.41;5001453;28;20026;-32
2022/05/23 11:35:43;;;;;;;46.83;21.52;;;;;;;22.30;54.83;99938.38;5002660;28;20076;-31
2022/05/23 11:38:09;;;;;;;54.15;23.75;;;;;;;22.23;54.88;99929.66;5016963;28;20021;-31
2022/05/23 11:40:38;;;;;;;42.17;20.63;;;;;;;22.12;55.99;99926.94;5017594;28;20030;-32
2022/05/23 11:43:08;;;;;;;40.88;21.20;;;;;;;22.16;55.71;99929.91;5000357;28;20057;-31
2022/05/23 11:48:41;;;;;;;45.17;24.17;;;;;;;22.05;55.97;99912.69;5003239;28;20094;-30
2022/05/23 11:51:12;;;;;;;51.30;23.80;;;;;;;22.07;55.96;99905.03;5017602;28;20026;-32
2022/05/23 11:54:03;;;;;;;49.83;24.55;;;;;;;22.01;55.79;99891.63;5017477;28;20033;-33
2022/05/23 11:56:47;;;;;;;52.60;23.58;;;;;;;21.92;56.10;99888.66;5017373;28;20412;-31
2022/05/23 11:59:32;;;;;;;44.60;25.25;;;;;;;21.71;57.02;99896.13;5017355;28;20034;-31
2022/05/23 12:02:06;;;;;;;48.60;24.10;;;;;;;21.69;56.94;99884.63;5017092;28;20033;-32
2022/05/23 12:04:33;;;;;;;53.78;26.13;;;;;;;21.85;56.47;99879.91;5016714;28;20046;-33
2022/05/23 12:06:58;;;;;;;47.28;23.60;;;;;;;21.99;56.14;99875.47;5016943;28;20030;-31
2022/05/23 12:09:30;;;;;;;42.50;22.45;;;;;;;22.07;56.64;99877.63;5016341;28;20045;-32
2022/05/23 12:12:21;;;;;;;47.40;23.25;;;;;;;22.09;55.53;99872.69;5017317;28;20033;-32
2022/05/23 12:14:46;;;;;;;41.28;21.02;;;;;;;22.00;55.50;99868.06;4980160;28;20053;-32
2022/05/23 12:17:23;;;;;;;38.97;21.07;;;;;;;21.88;55.21;99871.13;5017112;28;20030;-33
2022/05/23 12:19:57;;;;;;;55.35;23.60;;;;;;;21.51;55.82;99869.63;5016787;28;20523;-32
2022/05/23 12:22:25;;;;;;;45.88;22.27;;;;;;;21.25;57.07;99864.19;4999852;28;20038;-32
2022/05/23 12:25:17;;;;;;;52.15;23.27;;;;;;;20.99;57.12;99863.41;4999568;28;20367;-33